メインページ
METAR-TAF:

METAR-TAF

空港 :

アルジェ, アルジェリア

ウアリ・ブーメディアン空港

緯度: 36-43N, 経度: 003-15E, 海抜: 25m

現時点の気象観測

当レポートは18分前の23:00(UTC)に作成
の風 2kt
気温 19°C
湿度 83%
気圧 1015 hPa
視程10km以上
1,500メートル以下は雲なし、積乱雲なし

METAR: DAAG 272300Z 09002KT CAVOK 19/16 Q1015

時間: 00:18 (23:18 UTC)

予報

当レポートは6時間18分前の17:00(UTC)に作成
予報は27日の 18時(UTC)から 28日の 18時(UTC)まで有効
北/北東の風 10kt
視程10km以上
1,500メートル以下は雲なし、積乱雲なし
27日の 19時(UTC)から 27日の 22時(UTC)まで徐々に
変向風 2kt
確率 30% :
27日の 21時(UTC)から 28日の 03時(UTC)まで一時的に
視程: 3000m
高度1500ftの千切れ雲あり
28日の 08時(UTC)から 28日の 11時(UTC)まで徐々に
北/北東の風 12kt

TAF: DAAG 271700Z 2718/2818 02010KT CAVOK BECMG 2719/2722 VRB02KT PROB30 TEMPO 2721/2803 3000 BR BKN015 BECMG 2808/2811 02012KT

4,000以上の空港の気象観測と天気予報(METAR報とTAF報)

利用可能な観測所は地図上に黄色い丸と赤い丸で示す。

丸の上にカーソルを重ねると観測所名を参照できる。

次にクリックすると気象観測と天気予報を参照できる。

マップの切り替え:黒色「×」印の緑ボタンをクリックして拡大、「-」印の緑ボタンをクリックして縮小、緑色の三角印をクリックして隣りの地図に切り替え


METAR-TAF: